Time;durP1;ratioP1;P1;durP2;ratioP2;P2;SDS_P1;SDS_P2;PMS_P1;PMS_P2;Temp;Humidity;BMP_temperature;BMP_pressure;BME280_temperature;BME280_humidity;BME280_pressure;Samples;Min_cycle;Max_cycle;Signal;HPM_P1;HPM_P2
2021/08/08 00:01:44;0.00;0.00;0.62;0.00;0.00;0.62;;;;;20.40;1.00;;;;;;2274005;61;1002;-86
2021/08/08 00:04:11;12562.00;0.04;22.39;0.00;0.00;0.62;;;;;20.40;1.00;;;;;;2276176;61;1652;-86
2021/08/08 00:06:38;0.00;0.00;0.62;0.00;0.00;0.62;;;;;20.40;1.00;;;;;;2276645;61;1289;-87
2021/08/08 00:09:07;0.00;0.00;0.62;0.00;0.00;0.62;;;;;20.40;1.00;;;;;;2276094;61;1997;-86
2021/08/08 00:11:34;0.00;0.00;0.62;0.00;0.00;0.62;;;;;20.40;1.00;;;;;;2275959;61;1524;-86
2021/08/08 00:14:00;0.00;0.00;0.62;0.00;0.00;0.62;;;;;20.20;1.00;;;;;;2276310;61;1616;-87
2021/08/08 00:16:29;0.00;0.00;0.62;0.00;0.00;0.62;;;;;20.00;1.00;;;;;;2276457;61;1376;-86
2021/08/08 00:18:55;25684.00;0.09;45.11;0.00;0.00;0.62;;;;;20.00;1.00;;;;;;2273611;61;1671;-86
2021/08/08 00:21:22;0.00;0.00;0.62;0.00;0.00;0.62;;;;;19.70;1.00;;;;;;2272365;61;1129;-87
2021/08/08 00:23:49;0.00;0.00;0.62;0.00;0.00;0.62;;;;;19.50;1.00;;;;;;2272341;61;1168;-87
2021/08/08 00:26:18;0.00;0.00;0.62;0.00;0.00;0.62;;;;;19.60;1.00;;;;;;2272382;61;1294;-86
2021/08/08 00:28:48;0.00;0.00;0.62;0.00;0.00;0.62;;;;;19.80;1.00;;;;;;2275331;61;1923;-86
2021/08/08 00:31:16;57997.00;0.19;101.01;0.00;0.00;0.62;;;;;19.90;1.00;;;;;;2276590;61;1180;-86
2021/08/08 00:33:43;145065.00;0.48;251.30;78472.00;0.26;136.40;;;;;19.70;1.00;;;;;;2276653;61;1059;-86
2021/08/08 00:36:10;0.00;0.00;0.62;0.00;0.00;0.62;;;;;19.80;1.30;;;;;;2273680;61;1446;-85
2021/08/08 00:38:36;0.00;0.00;0.62;0.00;0.00;0.62;;;;;20.20;1.30;;;;;;2272640;61;1128;-86
2021/08/08 00:41:03;0.00;0.00;0.62;0.00;0.00;0.62;;;;;20.50;1.00;;;;;;2276175;61;1644;-84
2021/08/08 00:43:32;0.00;0.00;0.62;0.00;0.00;0.62;;;;;20.50;1.00;;;;;;2275028;61;1514;-85
2021/08/08 00:45:58;65568.00;0.22;114.10;0.00;0.00;0.62;;;;;20.50;1.00;;;;;;2276078;61;1467;-86
2021/08/08 00:48:25;14470.00;0.05;25.69;0.00;0.00;0.62;;;;;20.50;1.00;;;;;;2276548;61;1993;-84
2021/08/08 00:50:53;0.00;0.00;0.62;0.00;0.00;0.62;;;;;20.60;1.00;;;;;;2276523;61;1160;-86
2021/08/08 00:53:20;0.00;0.00;0.62;0.00;0.00;0.62;;;;;20.90;1.00;;;;;;2276432;61;1173;-86
2021/08/08 00:55:47;0.00;0.00;0.62;0.00;0.00;0.62;;;;;20.80;1.00;;;;;;2276273;61;1655;-86
2021/08/08 00:58:14;0.00;0.00;0.62;0.00;0.00;0.62;;;;;20.70;1.00;;;;;;2276402;61;1774;-88
2021/08/08 01:00:43;15210.00;0.05;26.97;0.00;0.00;0.62;;;;;20.60;1.00;;;;;;2276309;61;1151;-87
2021/08/08 01:03:14;0.00;0.00;0.62;0.00;0.00;0.62;;;;;20.70;1.00;;;;;;2276262;61;1851;-86
2021/08/08 01:05:47;18301.00;0.06;32.33;0.00;0.00;0.62;;;;;20.50;1.00;;;;;;2276157;61;1474;-88
2021/08/08 01:08:19;0.00;0.00;0.62;0.00;0.00;0.62;;;;;20.50;1.00;;;;;;2276234;61;1993;-85
2021/08/08 01:10:47;101043.00;0.34;175.37;34658.00;0.12;60.64;;;;;20.60;1.00;;;;;;2274970;61;1945;-87
2021/08/08 01:13:15;271423.00;0.90;468.79;44435.00;0.15;77.56;;;;;20.60;1.00;;;;;;2276011;61;1603;-87
2021/08/08 01:15:45;0.00;0.00;0.62;0.00;0.00;0.62;;;;;20.60;1.00;;;;;;2276367;61;1406;-87
2021/08/08 01:18:15;74286.00;0.25;129.17;0.00;0.00;0.62;;;;;20.60;1.00;;;;;;2276441;61;1077;-86
2021/08/08 01:20:43;0.00;0.00;0.62;0.00;0.00;0.62;;;;;20.40;1.00;;;;;;2268763;61;1761;-86
2021/08/08 01:23:13;0.00;0.00;0.62;0.00;0.00;0.62;;;;;20.30;1.00;;;;;;2276509;61;1100;-86
2021/08/08 01:25:42;201573.00;0.67;348.63;34203.00;0.11;59.86;;;;;20.20;1.00;;;;;;2276067;61;1846;-85
2021/08/08 01:28:09;0.00;0.00;0.62;0.00;0.00;0.62;;;;;20.00;1.00;;;;;;2273228;61;2004;-86
2021/08/08 01:30:36;16983.00;0.06;30.05;0.00;0.00;0.62;;;;;20.00;1.00;;;;;;2275811;61;1127;-86
2021/08/08 01:33:06;0.00;0.00;0.62;0.00;0.00;0.62;;;;;19.90;1.00;;;;;;2276203;61;1132;-87
2021/08/08 01:35:33;46720.00;0.16;81.51;0.00;0.00;0.62;;;;;20.00;1.00;;;;;;2276018;61;1505;-86
2021/08/08 01:38:00;180445.00;0.60;312.26;6344.00;0.02;11.61;;;;;20.20;1.00;;;;;;2276096;61;1199;-86
2021/08/08 01:40:35;0.00;0.00;0.62;0.00;0.00;0.62;;;;;20.10;1.00;;;;;;2276180;61;1659;-86
2021/08/08 01:43:07;0.00;0.00;0.62;0.00;0.00;0.62;;;;;20.20;1.00;;;;;;2275103;61;1727;-86
2021/08/08 01:45:36;28903.00;0.10;50.68;0.00;0.00;0.62;;;;;20.50;1.00;;;;;;2273358;61;1577;-87
2021/08/08 01:48:05;0.00;0.00;0.62;0.00;0.00;0.62;;;;;20.80;1.00;;;;;;2272050;61;1984;-85
2021/08/08 01:50:33;0.00;0.00;0.62;0.00;0.00;0.62;;;;;21.00;1.00;;;;;;2272075;61;1135;-87
2021/08/08 01:53:01;72569.00;0.24;126.20;0.00;0.00;0.62;;;;;21.00;1.00;;;;;;2273978;61;1550;-87
2021/08/08 01:55:29;0.00;0.00;0.62;0.00;0.00;0.62;;;;;21.00;1.00;;;;;;2275889;61;1577;-86
2021/08/08 01:57:57;0.00;0.00;0.62;0.00;0.00;0.62;;;;;21.00;1.00;;;;;;2276078;61;1627;-87
2021/08/08 02:00:26;0.00;0.00;0.62;0.00;0.00;0.62;;;;;21.30;1.00;;;;;;2276005;61;1142;-87
2021/08/08 02:02:56;0.00;0.00;0.62;0.00;0.00;0.62;;;;;21.30;1.00;;;;;;2276053;61;1954;-85
2021/08/08 02:05:26;0.00;0.00;0.62;0.00;0.00;0.62;;;;;21.10;1.00;;;;;;2276903;61;1830;-86
2021/08/08 02:07:53;0.00;0.00;0.62;0.00;0.00;0.62;;;;;21.00;1.00;;;;;;2276127;61;1657;-87
2021/08/08 02:10:20;109085.00;0.36;189.25;40466.00;0.13;70.69;;;;;20.80;1.00;;;;;;2276081;61;1928;-87
2021/08/08 02:12:47;7896.00;0.03;14.30;0.00;0.00;0.62;;;;;20.60;1.00;;;;;;2276342;61;1533;-83
2021/08/08 02:15:14;32541.00;0.11;56.98;0.00;0.00;0.62;;;;;20.70;1.00;;;;;;2274375;61;2163;-83
2021/08/08 02:17:43;0.00;0.00;0.62;0.00;0.00;0.62;;;;;20.90;1.00;;;;;;2275246;61;1829;-86
2021/08/08 02:54:43;130726.00;0.44;226.58;23080.00;0.08;40.60;;;;;20.50;1.00;;;;;;2513815;55;3636;31
2021/08/08 03:07:02;0.00;0.00;0.62;0.00;0.00;0.62;;;;;20.80;1.00;;;;;;2282810;61;927;-88
2021/08/08 03:11:58;0.00;0.00;0.62;0.00;0.00;0.62;;;;;20.80;1.00;;;;;;2282582;61;1143;-87
2021/08/08 03:21:48;0.00;0.00;0.62;0.00;0.00;0.62;;;;;20.90;1.00;;;;;;2515047;55;3605;31
2021/08/08 03:36:35;0.00;0.00;0.62;0.00;0.00;0.62;;;;;20.50;1.00;;;;;;2514915;40;3520;31
2021/08/08 03:43:58;21448.00;0.07;37.78;0.00;0.00;0.62;;;;;20.20;1.00;;;;;;2283229;61;923;-87
2021/08/08 03:51:20;47889.00;0.16;83.54;0.00;0.00;0.62;;;;;20.30;1.00;;;;;;2515786;40;3470;31
2021/08/08 04:16:03;0.00;0.00;0.62;0.00;0.00;0.62;;;;;20.30;1.00;;;;;;2514531;55;3544;31
2021/08/08 04:23:25;0.00;0.00;0.62;0.00;0.00;0.62;;;;;20.80;1.00;;;;;;2521084;40;3468;31
2021/08/08 04:25:52;83783.00;0.28;145.57;0.00;0.00;0.62;;;;;20.20;1.00;;;;;;2515267;40;3618;31
2021/08/08 04:35:44;40114.00;0.13;70.09;0.00;0.00;0.62;;;;;18.80;1.00;;;;;;2514302;55;3602;31
2021/08/08 04:48:02;0.00;0.00;0.62;0.00;0.00;0.62;;;;;19.80;1.00;;;;;;2514651;55;3651;31
2021/08/08 04:57:53;17023.00;0.06;30.11;0.00;0.00;0.62;;;;;20.30;1.00;;;;;;2514899;55;3605;31
2021/08/08 05:12:39;212949.00;0.71;368.21;78218.00;0.26;135.96;;;;;21.00;1.00;;;;;;2515281;55;3627;31
2021/08/08 05:17:35;0.00;0.00;0.62;0.00;0.00;0.62;;;;;21.10;1.00;;;;;;2515252;40;3456;31
2021/08/08 05:29:53;0.00;0.00;0.62;0.00;0.00;0.62;;;;;21.00;1.00;;;;;;2515257;40;3461;31
2021/08/08 05:57:14;0.00;0.00;0.62;0.00;0.00;0.62;;;;;29.10;1.00;;;;;;2282510;61;936;-88
2021/08/08 06:07:04;0.00;0.00;0.62;0.00;0.00;0.62;;;;;31.20;1.00;;;;;;2282857;61;1002;-86
2021/08/08 06:12:03;84061.00;0.28;146.05;0.00;0.00;0.62;;;;;31.40;1.00;;;;;;2282487;61;1309;-87
2021/08/08 06:31:56;242636.00;0.81;419.29;66937.00;0.22;116.47;;;;;32.00;1.00;;;;;;2282070;61;920;-86
2021/08/08 06:41:58;167681.00;0.56;290.27;57884.00;0.19;100.82;;;;;32.80;1.00;;;;;;2282506;61;911;-88
2021/08/08 06:44:28;312098.00;1.04;538.72;71683.00;0.24;124.67;;;;;33.30;1.00;;;;;;2272133;61;904;-88
2021/08/08 06:46:56;194760.00;0.65;336.90;55022.00;0.18;95.87;;;;;33.50;1.00;;;;;;2272178;61;959;-89
2021/08/08 06:51:57;301139.00;1.00;519.88;61095.00;0.20;106.37;;;;;33.60;1.00;;;;;;2286711;61;1253;-87
2021/08/08 06:54:25;214732.00;0.72;371.28;59226.00;0.20;103.14;;;;;33.60;1.00;;;;;;2284854;61;387;-88
2021/08/08 07:01:55;309241.00;1.03;533.80;55582.00;0.19;96.84;;;;;34.40;1.00;;;;;;2424971;39;3553;31
2021/08/08 07:09:19;287151.00;0.96;495.83;0.00;0.00;0.62;;;;;34.10;1.00;;;;;;2282149;61;1944;-88
2021/08/08 07:48:47;287148.00;0.96;495.83;0.00;0.00;0.62;;;;;32.50;1.00;;;;;;2518206;40;3439;31
2021/08/08 08:20:56;458356.00;1.53;790.16;63542.00;0.21;110.60;;;;;28.80;1.00;;;;;;2282521;60;1286;-87
2021/08/08 08:25:51;8677.00;0.03;15.66;0.00;0.00;0.62;;;;;28.00;1.00;;;;;;2282738;60;1302;-85
2021/08/08 08:28:18;112957.00;0.38;195.93;0.00;0.00;0.62;;;;;28.00;1.00;;;;;;2280832;60;1040;-85
2021/08/08 08:30:44;100100.00;0.33;173.74;0.00;0.00;0.62;;;;;27.90;1.00;;;;;;2280729;60;2000;-85
2021/08/08 08:33:11;217083.00;0.72;375.32;0.00;0.00;0.62;;;;;28.00;1.00;;;;;;2278943;60;1539;-86
2021/08/08 08:35:38;81491.00;0.27;141.61;0.00;0.00;0.62;;;;;28.20;1.00;;;;;;2276483;61;1539;-87
2021/08/08 08:38:07;51143.00;0.17;89.16;0.00;0.00;0.62;;;;;28.30;1.00;;;;;;2276516;61;1687;-84
2021/08/08 08:40:37;178693.00;0.60;309.24;18515.00;0.06;32.70;;;;;28.80;1.00;;;;;;2276577;61;1683;-84
2021/08/08 08:43:08;220106.00;0.73;380.53;61894.00;0.21;107.75;;;;;29.10;1.00;;;;;;2275895;61;1454;-88
2021/08/08 08:45:36;82631.00;0.28;143.58;0.00;0.00;0.62;;;;;29.80;1.00;;;;;;2275828;61;1603;-87
2021/08/08 08:48:05;0.00;0.00;0.62;0.00;0.00;0.62;;;;;30.40;1.00;;;;;;2276701;61;1091;-87
2021/08/08 08:50:35;0.00;0.00;0.62;0.00;0.00;0.62;;;;;30.40;1.00;;;;;;2276809;61;2002;-87
2021/08/08 08:53:03;0.00;0.00;0.62;0.00;0.00;0.62;;;;;30.70;1.00;;;;;;2276219;61;1354;-88
2021/08/08 08:55:31;52105.00;0.17;90.83;0.00;0.00;0.62;;;;;30.10;1.00;;;;;;2276119;61;1839;-89
2021/08/08 08:57:59;118624.00;0.40;205.71;53202.00;0.18;92.72;;;;;29.70;1.00;;;;;;2276290;61;1092;-88
2021/08/08 09:00:26;12396.00;0.04;22.10;0.00;0.00;0.62;;;;;29.40;1.00;;;;;;2276145;60;1144;-87
2021/08/08 09:02:53;0.00;0.00;0.62;0.00;0.00;0.62;;;;;29.10;1.00;;;;;;2276414;60;1376;-83
2021/08/08 09:05:22;0.00;0.00;0.62;0.00;0.00;0.62;;;;;28.80;1.00;;;;;;2276520;61;2225;-83
2021/08/08 09:07:49;11268.00;0.04;20.15;0.00;0.00;0.62;;;;;28.90;1.00;;;;;;2276638;61;1759;-84
2021/08/08 09:10:16;360931.00;1.20;622.65;63338.00;0.21;110.25;;;;;29.10;1.00;;;;;;2276555;61;1917;-87
2021/08/08 09:12:57;68977.00;0.23;119.99;0.00;0.00;0.62;;;;;29.20;1.00;;;;;;2276496;61;1283;-83
2021/08/08 09:15:33;110983.00;0.37;192.53;0.00;0.00;0.62;;;;;27.90;1.00;;;;;;2276577;61;1189;-83
2021/08/08 09:18:14;0.00;0.00;0.62;0.00;0.00;0.62;;;;;27.70;1.00;;;;;;2275687;61;1055;-83
2021/08/08 09:20:42;0.00;0.00;0.62;0.00;0.00;0.62;;;;;28.00;1.00;;;;;;2276039;61;1638;-82
2021/08/08 09:23:09;43905.00;0.15;76.64;0.00;0.00;0.62;;;;;27.30;1.00;;;;;;2265894;60;1804;-83
2021/08/08 09:25:37;34509.00;0.12;60.39;0.00;0.00;0.62;;;;;26.70;1.00;;;;;;2276452;60;1110;-83
2021/08/08 09:28:11;0.00;0.00;0.62;0.00;0.00;0.62;;;;;26.80;1.00;;;;;;2272731;61;977;-83
2021/08/08 09:30:40;0.00;0.00;0.62;0.00;0.00;0.62;;;;;26.90;1.00;;;;;;2276488;60;1988;-83
2021/08/08 09:33:08;152277.00;0.51;263.73;0.00;0.00;0.62;;;;;27.00;1.00;;;;;;2276306;60;2265;-85
2021/08/08 09:35:37;0.00;0.00;0.62;0.00;0.00;0.62;;;;;27.50;1.00;;;;;;2276338;61;1644;-84
2021/08/08 09:38:08;0.00;0.00;0.62;0.00;0.00;0.62;;;;;27.80;1.00;;;;;;2276479;61;1187;-84
2021/08/08 09:40:37;0.00;0.00;0.62;0.00;0.00;0.62;;;;;28.00;1.00;;;;;;2266353;61;1212;-84
2021/08/08 09:43:05;0.00;0.00;0.62;0.00;0.00;0.62;;;;;27.90;1.00;;;;;;2276396;61;1293;-85
2021/08/08 09:45:38;152270.00;0.51;263.72;17269.00;0.06;30.54;;;;;28.20;1.00;;;;;;2276414;61;1072;-86
2021/08/08 09:48:06;146102.00;0.49;253.09;32118.00;0.11;56.25;;;;;28.40;1.00;;;;;;2273591;61;1587;-85
2021/08/08 09:50:33;0.00;0.00;0.62;0.00;0.00;0.62;;;;;27.70;1.00;;;;;;2276242;61;2036;-84
2021/08/08 09:53:02;0.00;0.00;0.62;0.00;0.00;0.62;;;;;27.20;1.00;;;;;;2276391;61;1508;-83
2021/08/08 09:55:33;15812.00;0.05;28.02;0.00;0.00;0.62;;;;;26.80;1.00;;;;;;2276465;61;1065;-82
2021/08/08 09:58:00;0.00;0.00;0.62;0.00;0.00;0.62;;;;;27.00;1.00;;;;;;2266085;61;1220;-84
2021/08/08 10:00:30;0.00;0.00;0.62;0.00;0.00;0.62;;;;;26.80;1.00;;;;;;2275798;61;1591;-83
2021/08/08 10:02:59;0.00;0.00;0.62;0.00;0.00;0.62;;;;;26.60;1.00;;;;;;2276388;61;1336;-86
2021/08/08 10:05:27;0.00;0.00;0.62;0.00;0.00;0.62;;;;;26.80;1.00;;;;;;2276052;61;1459;-85
2021/08/08 10:07:55;0.00;0.00;0.62;0.00;0.00;0.62;;;;;27.40;1.00;;;;;;2275654;61;1707;-86
2021/08/08 10:10:23;0.00;0.00;0.62;0.00;0.00;0.62;;;;;27.00;1.00;;;;;;2267586;61;2028;-86
2021/08/08 10:13:22;0.00;0.00;0.62;0.00;0.00;0.62;;;;;26.30;1.00;;;;;;2275195;61;1769;-86
2021/08/08 10:15:52;0.00;0.00;0.62;0.00;0.00;0.62;;;;;25.90;1.00;;;;;;2266585;61;2258;-85
2021/08/08 10:18:26;0.00;0.00;0.62;0.00;0.00;0.62;;;;;26.00;1.00;;;;;;2274392;61;1738;-87
2021/08/08 10:20:56;9632.00;0.03;17.31;0.00;0.00;0.62;;;;;26.30;1.00;;;;;;2275926;61;1807;-86
2021/08/08 10:23:24;35279.00;0.12;61.72;0.00;0.00;0.62;;;;;25.90;1.00;;;;;;2275282;61;2296;-86
2021/08/08 10:25:53;195382.00;0.65;337.97;40287.00;0.13;70.38;;;;;26.20;1.00;;;;;;2275872;61;1733;-86
2021/08/08 10:28:22;0.00;0.00;0.62;0.00;0.00;0.62;;;;;26.40;1.00;;;;;;2265110;61;1255;-85
2021/08/08 10:30:49;99697.00;0.33;173.05;31727.00;0.11;55.57;;;;;26.40;1.00;;;;;;2274755;61;1919;-86
2021/08/08 10:33:16;14028.00;0.05;24.93;0.00;0.00;0.62;;;;;26.00;1.00;;;;;;2275247;61;1471;-86
2021/08/08 10:35:46;0.00;0.00;0.62;0.00;0.00;0.62;;;;;25.80;1.00;;;;;;2275369;61;2283;-86
2021/08/08 10:38:15;0.00;0.00;0.62;0.00;0.00;0.62;;;;;26.30;1.00;;;;;;2275358;61;1148;-86
2021/08/08 10:40:43;63273.00;0.21;110.13;0.00;0.00;0.62;;;;;26.90;1.00;;;;;;2276010;60;1108;-86
2021/08/08 10:43:22;0.00;0.00;0.62;0.00;0.00;0.62;;;;;27.50;1.00;;;;;;2275607;61;1281;-83
2021/08/08 10:45:49;0.00;0.00;0.62;0.00;0.00;0.62;;;;;27.50;1.00;;;;;;2276286;61;1095;-83
2021/08/08 10:48:16;320851.00;1.07;553.76;139391.00;0.46;241.52;;;;;27.60;1.00;;;;;;2276285;60;1078;-83
2021/08/08 10:50:46;38327.00;0.13;66.99;0.00;0.00;0.62;;;;;27.30;1.00;;;;;;2275975;60;1916;-85
2021/08/08 10:53:21;32685.00;0.11;57.23;0.00;0.00;0.62;;;;;27.20;1.00;;;;;;2275800;61;1446;-86
2021/08/08 10:55:50;50466.00;0.17;87.99;0.00;0.00;0.62;;;;;27.10;1.00;;;;;;2275617;61;1098;-86
2021/08/08 10:58:20;0.00;0.00;0.62;0.00;0.00;0.62;;;;;26.90;1.00;;;;;;2275784;61;1131;-86
2021/08/08 11:00:47;14546.00;0.05;25.82;0.00;0.00;0.62;;;;;26.60;1.00;;;;;;2275921;60;1060;-86
2021/08/08 11:03:16;134526.00;0.45;233.13;0.00;0.00;0.62;;;;;26.30;1.00;;;;;;2275587;61;1292;-86
2021/08/08 11:05:45;128578.00;0.43;222.88;0.00;0.00;0.62;;;;;26.10;1.00;;;;;;2276059;61;1036;-86
2021/08/08 11:08:13;17342.00;0.06;30.67;0.00;0.00;0.62;;;;;26.50;1.00;;;;;;2275724;60;1136;-86
2021/08/08 11:10:42;21895.00;0.07;38.55;0.00;0.00;0.62;;;;;26.80;1.00;;;;;;2275608;61;1916;-86
2021/08/08 11:13:20;201278.00;0.67;348.12;0.00;0.00;0.62;;;;;27.10;1.00;;;;;;2276086;60;1402;-86
2021/08/08 11:15:47;15358.00;0.05;27.23;0.00;0.00;0.62;;;;;27.20;1.00;;;;;;2275483;61;1131;-86
2021/08/08 11:18:14;0.00;0.00;0.62;0.00;0.00;0.62;;;;;27.50;1.00;;;;;;2275903;61;1143;-86
2021/08/08 11:20:42;123283.00;0.41;213.75;0.00;0.00;0.62;;;;;27.40;1.00;;;;;;2275832;61;1058;-87
2021/08/08 11:23:11;236751.00;0.79;409.16;47303.00;0.16;82.52;;;;;27.60;1.00;;;;;;2275633;61;1344;-86
2021/08/08 11:25:41;99838.00;0.33;173.29;0.00;0.00;0.62;;;;;27.20;1.00;;;;;;2275563;60;1154;-87
2021/08/08 11:28:08;71202.00;0.24;123.84;0.00;0.00;0.62;;;;;27.00;1.00;;;;;;2275272;61;1140;-87
2021/08/08 11:30:44;290924.00;0.97;502.32;12356.00;0.04;22.03;;;;;26.70;1.00;;;;;;2276035;61;1919;-83
2021/08/08 11:33:12;59317.00;0.20;103.30;0.00;0.00;0.62;;;;;27.00;1.00;;;;;;2276137;60;1369;-83
2021/08/08 11:35:40;0.00;0.00;0.62;0.00;0.00;0.62;;;;;27.40;1.00;;;;;;2275113;61;1036;-86
2021/08/08 11:38:17;0.00;0.00;0.62;0.00;0.00;0.62;;;;;27.50;1.00;;;;;;2275486;61;1133;-86
2021/08/08 11:40:46;4397.00;0.01;8.24;0.00;0.00;0.62;;;;;27.10;1.00;;;;;;2275586;61;1115;-87
2021/08/08 11:43:15;15719.00;0.05;27.86;0.00;0.00;0.62;;;;;27.20;1.00;;;;;;2274900;61;1323;-86
2021/08/08 11:45:44;0.00;0.00;0.62;0.00;0.00;0.62;;;;;26.50;1.00;;;;;;2275331;61;1105;-86
2021/08/08 11:48:13;0.00;0.00;0.62;0.00;0.00;0.62;;;;;26.30;1.00;;;;;;2267651;61;1187;-85
2021/08/08 11:50:41;0.00;0.00;0.62;0.00;0.00;0.62;;;;;26.30;1.00;;;;;;2266963;61;2010;-86
2021/08/08 11:53:10;0.00;0.00;0.62;0.00;0.00;0.62;;;;;26.70;1.00;;;;;;2274594;61;1386;-86
2021/08/08 11:55:38;0.00;0.00;0.62;0.00;0.00;0.62;;;;;27.00;1.00;;;;;;2274558;61;1131;-86
2021/08/08 11:58:07;0.00;0.00;0.62;0.00;0.00;0.62;;;;;26.80;1.00;;;;;;2275044;61;1142;-86
2021/08/08 12:00:36;0.00;0.00;0.62;0.00;0.00;0.62;;;;;26.70;1.00;;;;;;2268449;61;1065;-86
2021/08/08 12:03:03;28383.00;0.09;49.78;0.00;0.00;0.62;;;;;27.00;1.00;;;;;;2275541;61;1379;-86
2021/08/08 12:05:32;24289.00;0.08;42.70;0.00;0.00;0.62;;;;;26.70;1.00;;;;;;2268950;61;1144;-85
2021/08/08 12:08:00;250088.00;0.83;432.10;47805.00;0.16;83.39;;;;;26.60;1.00;;;;;;2276010;61;1112;-86
2021/08/08 12:10:28;0.00;0.00;0.62;0.00;0.00;0.62;;;;;26.50;1.00;;;;;;2275850;61;1990;-86
2021/08/08 12:12:57;127464.00;0.42;220.96;44359.00;0.15;77.43;;;;;26.40;1.00;;;;;;2275828;61;1421;-86
2021/08/08 12:15:35;23322.00;0.08;41.02;0.00;0.00;0.62;;;;;26.60;1.00;;;;;;2275859;61;1116;-86
2021/08/08 12:18:03;0.00;0.00;0.62;0.00;0.00;0.62;;;;;26.60;1.00;;;;;;2275260;61;1163;-86
2021/08/08 12:20:35;51387.00;0.17;89.58;0.00;0.00;0.62;;;;;26.50;1.00;;;;;;2275910;61;1181;-86
2021/08/08 12:23:10;14428.00;0.05;25.62;0.00;0.00;0.62;;;;;26.70;1.00;;;;;;2276242;61;1375;-86
2021/08/08 12:25:38;0.00;0.00;0.62;0.00;0.00;0.62;;;;;27.00;1.00;;;;;;2275945;61;1138;-86
2021/08/08 12:28:07;254794.00;0.85;440.20;51501.00;0.17;89.78;;;;;27.00;1.00;;;;;;2275707;61;1171;-85
2021/08/08 12:30:34;52785.00;0.18;92.00;0.00;0.00;0.62;;;;;26.90;1.00;;;;;;2275259;60;2018;-84
2021/08/08 12:33:07;33682.00;0.11;58.96;0.00;0.00;0.62;;;;;26.40;1.00;;;;;;2275364;61;1379;-84
2021/08/08 12:35:38;0.00;0.00;0.62;0.00;0.00;0.62;;;;;26.40;1.00;;;;;;2275353;61;1097;-84
2021/08/08 12:38:07;12175.00;0.04;21.72;0.00;0.00;0.62;;;;;26.60;1.00;;;;;;2275845;61;1123;-85
2021/08/08 12:40:43;21556.00;0.07;37.96;0.00;0.00;0.62;;;;;26.40;1.00;;;;;;2275525;61;1146;-85
2021/08/08 12:43:12;0.00;0.00;0.62;0.00;0.00;0.62;;;;;26.40;1.00;;;;;;2275736;61;1465;-85
2021/08/08 12:45:40;121516.00;0.41;210.70;0.00;0.00;0.62;;;;;25.80;1.00;;;;;;2275583;60;1168;-85
2021/08/08 12:48:07;184105.00;0.61;318.56;0.00;0.00;0.62;;;;;26.10;1.00;;;;;;2275194;61;1167;-87
2021/08/08 12:50:46;112114.00;0.37;194.48;13055.00;0.04;23.24;;;;;26.00;1.00;;;;;;2275171;61;2014;-87
2021/08/08 12:53:13;45978.00;0.15;80.23;0.00;0.00;0.62;;;;;25.80;1.00;;;;;;2274875;61;1407;-85
2021/08/08 12:55:40;0.00;0.00;0.62;0.00;0.00;0.62;;;;;26.20;1.00;;;;;;2275175;61;1179;-85
2021/08/08 12:58:07;96687.00;0.32;167.85;0.00;0.00;0.62;;;;;26.40;1.00;;;;;;2275459;61;1131;-85
2021/08/08 13:00:35;93060.00;0.31;161.59;0.00;0.00;0.62;;;;;26.60;1.00;;;;;;2275092;61;1155;-87
2021/08/08 13:03:03;16093.00;0.05;28.50;0.00;0.00;0.62;;;;;25.80;1.00;;;;;;2275142;61;1288;-85
2021/08/08 13:05:30;91315.00;0.30;158.58;0.00;0.00;0.62;;;;;25.60;1.00;;;;;;2275310;61;1151;-85
2021/08/08 13:07:57;0.00;0.00;0.62;0.00;0.00;0.62;;;;;25.70;1.00;;;;;;2275117;61;1132;-85
2021/08/08 13:10:25;20518.00;0.07;36.17;0.00;0.00;0.62;;;;;26.10;1.00;;;;;;2274337;61;1927;-85
2021/08/08 13:12:52;0.00;0.00;0.62;0.00;0.00;0.62;;;;;26.60;1.00;;;;;;2274913;61;1258;-85
2021/08/08 13:15:19;0.00;0.00;0.62;0.00;0.00;0.62;;;;;26.60;1.00;;;;;;2275140;61;1119;-86
2021/08/08 13:17:48;41414.00;0.14;72.33;0.00;0.00;0.62;;;;;26.20;1.00;;;;;;2273964;61;1164;-85
2021/08/08 13:20:16;88388.00;0.29;153.52;0.00;0.00;0.62;;;;;26.20;1.00;;;;;;2275519;61;1152;-86
2021/08/08 13:22:43;0.00;0.00;0.62;0.00;0.00;0.62;;;;;26.30;1.00;;;;;;2275267;61;1356;-86
2021/08/08 13:25:12;0.00;0.00;0.62;0.00;0.00;0.62;;;;;26.00;1.00;;;;;;2276171;60;1104;-85
2021/08/08 13:27:39;0.00;0.00;0.62;0.00;0.00;0.62;;;;;26.30;1.00;;;;;;2275189;61;1095;-85
2021/08/08 13:30:08;0.00;0.00;0.62;0.00;0.00;0.62;;;;;26.50;1.00;;;;;;2275106;60;1167;-88
2021/08/08 13:32:35;0.00;0.00;0.62;0.00;0.00;0.62;;;;;27.00;1.00;;;;;;2274886;61;2019;-85
2021/08/08 13:35:04;40751.00;0.14;71.19;0.00;0.00;0.62;;;;;27.10;1.00;;;;;;2275106;61;1219;-87
2021/08/08 13:37:31;70741.00;0.24;123.04;0.00;0.00;0.62;;;;;27.10;1.00;;;;;;2275266;60;1102;-85
2021/08/08 13:39:58;49275.00;0.16;85.93;0.00;0.00;0.62;;;;;27.00;1.00;;;;;;2275924;61;1156;-86
2021/08/08 13:42:24;0.00;0.00;0.62;0.00;0.00;0.62;;;;;27.10;1.00;;;;;;2276268;61;1306;-86
2021/08/08 13:44:51;0.00;0.00;0.62;0.00;0.00;0.62;;;;;26.90;1.00;;;;;;2275942;61;1080;-85
2021/08/08 13:47:19;0.00;0.00;0.62;0.00;0.00;0.62;;;;;27.00;1.00;;;;;;2276064;60;1188;-86
2021/08/08 13:49:46;0.00;0.00;0.62;0.00;0.00;0.62;;;;;26.60;1.00;;;;;;2275466;61;1129;-86
2021/08/08 13:52:14;0.00;0.00;0.62;0.00;0.00;0.62;;;;;26.70;1.00;;;;;;2275956;60;1924;-85
2021/08/08 13:54:41;0.00;0.00;0.62;0.00;0.00;0.62;;;;;26.60;1.00;;;;;;2276356;61;1114;-83
2021/08/08 13:57:08;104150.00;0.35;180.73;0.00;0.00;0.62;;;;;26.90;1.00;;;;;;2276226;61;1159;-86
2021/08/08 13:59:34;188479.00;0.63;326.09;54406.00;0.18;94.81;;;;;26.80;1.00;;;;;;2276315;60;1072;-86
2021/08/08 14:02:01;99533.00;0.33;172.77;0.00;0.00;0.62;;;;;27.10;1.00;;;;;;2275778;61;1099;-87
2021/08/08 14:04:28;33871.00;0.11;59.28;0.00;0.00;0.62;;;;;27.00;1.00;;;;;;2275111;61;1137;-87
2021/08/08 14:06:55;0.00;0.00;0.62;0.00;0.00;0.62;;;;;26.50;1.00;;;;;;2276213;60;1119;-87
2021/08/08 14:09:23;0.00;0.00;0.62;0.00;0.00;0.62;;;;;26.70;1.00;;;;;;2276028;61;1088;-87
2021/08/08 14:11:52;0.00;0.00;0.62;0.00;0.00;0.62;;;;;27.00;1.00;;;;;;2275990;61;2006;-87
2021/08/08 14:14:19;12176.00;0.04;21.72;0.00;0.00;0.62;;;;;26.90;1.00;;;;;;2275581;61;1306;-87
2021/08/08 14:16:46;9225.00;0.03;16.61;0.00;0.00;0.62;;;;;27.00;1.00;;;;;;2275207;61;1104;-87
2021/08/08 14:19:13;23726.00;0.08;41.72;0.00;0.00;0.62;;;;;26.60;1.00;;;;;;2274086;61;1210;-86
2021/08/08 14:21:40;86240.00;0.29;149.81;0.00;0.00;0.62;;;;;26.60;1.00;;;;;;2275696;60;1144;-83
2021/08/08 14:24:07;116887328.00;389.62;64688308.00;0.00;0.00;0.62;;;;;26.30;1.00;;;;;;2276250;60;1339;-84
2021/08/08 14:26:35;96812.00;0.32;168.07;0.00;0.00;0.62;;;;;26.00;1.00;;;;;;2274431;61;1083;-86
2021/08/08 14:29:02;0.00;0.00;0.62;0.00;0.00;0.62;;;;;26.00;1.00;;;;;;2274493;61;1143;-86
2021/08/08 14:31:29;0.00;0.00;0.62;0.00;0.00;0.62;;;;;26.10;1.00;;;;;;2274060;61;2000;-86
2021/08/08 14:33:56;27387.00;0.09;48.06;0.00;0.00;0.62;;;;;26.20;1.00;;;;;;2273838;61;1379;-86
2021/08/08 14:36:23;0.00;0.00;0.62;0.00;0.00;0.62;;;;;26.00;1.00;;;;;;2274193;61;1570;-86
2021/08/08 14:38:50;0.00;0.00;0.62;0.00;0.00;0.62;;;;;25.90;1.00;;;;;;2274324;61;1139;-87
2021/08/08 14:41:17;0.00;0.00;0.62;0.00;0.00;0.62;;;;;25.90;1.00;;;;;;2274949;61;1138;-87
2021/08/08 14:43:45;0.00;0.00;0.62;0.00;0.00;0.62;;;;;25.90;1.00;;;;;;2275739;61;1265;-87
2021/08/08 14:46:12;30846.00;0.10;54.05;0.00;0.00;0.62;;;;;25.90;1.00;;;;;;2275441;61;1158;-86
2021/08/08 14:48:40;0.00;0.00;0.62;0.00;0.00;0.62;;;;;26.00;1.00;;;;;;2275668;60;1130;-83
2021/08/08 14:51:07;0.00;0.00;0.62;0.00;0.00;0.62;;;;;25.90;1.00;;;;;;2276244;60;2000;-85
2021/08/08 14:53:34;0.00;0.00;0.62;0.00;0.00;0.62;;;;;25.50;1.00;;;;;;2276222;60;1321;-84
2021/08/08 14:56:01;30411.00;0.10;53.29;0.00;0.00;0.62;;;;;25.50;1.00;;;;;;2276059;60;1181;-87
2021/08/08 14:58:28;0.00;0.00;0.62;0.00;0.00;0.62;;;;;25.30;1.00;;;;;;2276039;61;1123;-84
2021/08/08 15:00:56;0.00;0.00;0.62;0.00;0.00;0.62;;;;;25.50;1.00;;;;;;2276187;60;1159;-86
2021/08/08 15:03:23;0.00;0.00;0.62;0.00;0.00;0.62;;;;;25.30;1.00;;;;;;2276071;60;1367;-84
2021/08/08 15:05:50;73743.00;0.25;128.23;0.00;0.00;0.62;;;;;25.10;1.00;;;;;;2275790;61;1175;-84
2021/08/08 15:08:17;0.00;0.00;0.62;0.00;0.00;0.62;;;;;25.10;1.00;;;;;;2275903;60;1147;-88
2021/08/08 15:10:44;0.00;0.00;0.62;0.00;0.00;0.62;;;;;25.00;1.00;;;;;;2275832;61;1130;-86
2021/08/08 15:13:10;50336.00;0.17;87.77;0.00;0.00;0.62;;;;;25.20;1.00;;;;;;2275814;61;2007;-85
2021/08/08 15:15:37;82743.00;0.28;143.78;0.00;0.00;0.62;;;;;25.50;1.00;;;;;;2276069;61;1155;-85
2021/08/08 15:18:06;74342.00;0.25;129.26;0.00;0.00;0.62;;;;;25.60;1.00;;;;;;2276238;61;1103;-85
2021/08/08 15:20:32;0.00;0.00;0.62;0.00;0.00;0.62;;;;;26.00;1.00;;;;;;2276204;60;1095;-86
2021/08/08 15:22:59;0.00;0.00;0.62;0.00;0.00;0.62;;;;;26.00;1.00;;;;;;2275238;61;1252;-86